Time;durP1;ratioP1;P1;durP2;ratioP2;P2;SDS_P1;SDS_P2;PMS_P1;PMS_P2;Temp;Humidity;BMP_temperature;BMP_pressure;BME280_temperature;BME280_humidity;BME280_pressure;Samples;Min_cycle;Max_cycle;Signal;HPM_P1;HPM_P2
2021/04/24 00:01:33;;;;;;;11.50;6.80;;;;;;;4.81;79.68;102405.16;5044550;28;20060;-82
2021/04/24 00:03:59;;;;;;;14.32;6.65;;;;;;;4.79;79.95;102412.34;5029852;28;20033;-78
2021/04/24 00:06:25;;;;;;;12.32;6.22;;;;;;;4.73;80.10;102403.78;5065013;28;20052;-81
2021/04/24 00:08:50;;;;;;;14.70;7.40;;;;;;;4.74;79.91;102402.81;5046858;28;20040;-79
2021/04/24 00:11:17;;;;;;;13.68;7.07;;;;;;;4.73;80.24;102403.78;5062597;28;20384;-80
2021/04/24 00:13:42;;;;;;;15.13;6.88;;;;;;;4.70;80.26;102401.28;5064328;28;20041;-81
2021/04/24 00:16:07;;;;;;;13.95;6.45;;;;;;;4.62;80.38;102405.34;5044098;28;20102;-82
2021/04/24 00:18:33;;;;;;;14.63;7.18;;;;;;;4.60;80.42;102405.41;5029561;28;20044;-80
2021/04/24 00:20:58;;;;;;;15.82;7.13;;;;;;;4.60;80.37;102404.53;5043807;28;20041;-80
2021/04/24 00:23:24;;;;;;;12.15;6.97;;;;;;;4.58;80.74;102409.13;5047215;28;20041;-78
2021/04/24 00:25:49;;;;;;;16.65;7.95;;;;;;;4.48;80.58;102403.44;5025497;28;20444;-83
2021/04/24 00:28:14;;;;;;;12.30;6.38;;;;;;;4.46;80.93;102402.66;5045005;28;20048;-80
2021/04/24 00:30:41;;;;;;;13.32;6.72;;;;;;;4.42;81.02;102398.47;5047341;28;20074;-81
2021/04/24 00:33:07;;;;;;;13.52;7.05;;;;;;;4.41;81.21;102396.75;5043921;28;20505;-82
2021/04/24 00:35:32;;;;;;;15.48;7.13;;;;;;;4.36;81.04;102399.66;5063916;28;20400;-81
2021/04/24 00:37:58;;;;;;;13.38;6.57;;;;;;;4.27;81.46;102394.84;5064215;28;20037;-80
2021/04/24 00:40:24;;;;;;;16.73;8.18;;;;;;;4.25;81.82;102396.72;5047574;28;20115;-83
2021/04/24 00:42:50;;;;;;;13.07;7.03;;;;;;;4.18;81.61;102390.91;5047364;28;20067;-75
2021/04/24 00:45:19;;;;;;;16.13;7.20;;;;;;;4.10;81.86;102387.81;5063886;28;20052;-79
2021/04/24 00:47:45;;;;;;;12.95;6.57;;;;;;;3.97;82.33;102392.06;5062763;28;20615;-80
2021/04/24 00:50:11;;;;;;;14.45;6.72;;;;;;;3.97;82.30;102386.75;5062164;28;20151;-80
2021/04/24 00:52:37;;;;;;;13.90;7.20;;;;;;;3.94;82.52;102387.78;5066382;28;20036;-84
2021/04/24 00:55:04;;;;;;;15.15;7.03;;;;;;;3.90;82.43;102386.22;5043091;28;20040;-76
2021/04/24 00:57:30;;;;;;;15.02;7.35;;;;;;;3.91;82.71;102389.72;5030313;28;20069;-79
2021/04/24 00:59:56;;;;;;;16.35;7.90;;;;;;;3.88;82.43;102379.28;5044886;28;20064;-82
2021/04/24 01:02:22;;;;;;;16.58;7.72;;;;;;;3.82;82.43;102381.31;5064374;28;20083;-81
2021/04/24 01:04:47;;;;;;;12.70;6.90;;;;;;;3.82;82.76;102375.13;5059568;28;20052;-80
2021/04/24 01:07:13;;;;;;;15.52;7.93;;;;;;;3.67;83.33;102373.31;5044924;28;20037;-79
2021/04/24 01:09:38;;;;;;;14.70;7.50;;;;;;;3.66;83.43;102367.16;5046422;28;20046;-79
2021/04/24 01:12:04;;;;;;;15.90;7.13;;;;;;;3.63;83.47;102369.97;5063586;28;20045;-75
2021/04/24 01:14:30;;;;;;;19.30;8.50;;;;;;;3.60;83.71;102372.78;5062278;28;20040;-79
2021/04/24 01:16:56;;;;;;;17.40;7.93;;;;;;;3.49;84.30;102369.84;5050804;28;20040;-80
2021/04/24 01:19:23;;;;;;;17.00;7.03;;;;;;;3.36;84.11;102362.47;5032707;28;20040;-81
2021/04/24 01:21:51;;;;;;;16.27;7.22;;;;;;;3.37;84.66;102366.88;5050097;28;20040;-79
2021/04/24 01:24:17;;;;;;;12.00;7.00;;;;;;;3.32;84.54;102363.59;5061846;28;20053;-77
2021/04/24 01:26:43;;;;;;;16.65;8.00;;;;;;;3.29;84.53;102361.09;5065763;28;20045;-80
2021/04/24 01:29:08;;;;;;;13.05;7.28;;;;;;;3.28;84.59;102372.66;5047150;28;20110;-79
2021/04/24 01:31:35;;;;;;;16.23;7.85;;;;;;;3.24;84.71;102370.22;5047344;28;20066;-76
2021/04/24 01:34:01;;;;;;;15.18;7.75;;;;;;;3.21;84.71;102370.38;5063836;28;20040;-82
2021/04/24 01:36:27;;;;;;;19.10;8.10;;;;;;;3.19;84.89;102369.59;5066709;28;20109;-78
2021/04/24 01:38:53;;;;;;;15.88;7.13;;;;;;;3.15;84.89;102377.72;5062924;28;20033;-80
2021/04/24 01:41:18;;;;;;;12.88;7.45;;;;;;;3.10;85.38;102377.09;5064882;28;20070;-80
2021/04/24 01:43:50;;;;;;;13.90;7.15;;;;;;;3.11;85.38;102378.81;5043076;28;20040;-77
2021/04/24 01:46:16;;;;;;;14.90;7.78;;;;;;;3.04;85.25;102380.03;5047073;28;20074;-80
2021/04/24 01:48:42;;;;;;;15.68;7.60;;;;;;;3.01;85.63;102374.03;5046338;28;20036;-85
2021/04/24 01:51:07;;;;;;;14.45;7.95;;;;;;;3.03;85.24;102374.84;5046690;28;20159;-83
2021/04/24 01:53:33;;;;;;;13.70;7.25;;;;;;;3.01;85.54;102374.03;5060994;28;20037;-79
2021/04/24 01:56:00;;;;;;;17.27;8.40;;;;;;;2.99;85.90;102368.81;5064384;28;20048;-83
2021/04/24 01:58:27;;;;;;;13.13;7.45;;;;;;;2.95;86.07;102377.84;5035190;28;20148;-82
2021/04/24 02:01:15;;;;;;;15.52;7.15;;;;;;;2.93;85.88;102380.59;5050127;28;20052;-82
2021/04/24 02:03:40;;;;;;;19.98;10.10;;;;;;;2.96;86.20;102376.91;5041907;28;20500;-81
2021/04/24 02:06:06;;;;;;;18.45;9.30;;;;;;;2.88;86.07;102372.00;5063613;28;20040;-83
2021/04/24 02:08:37;;;;;;;21.30;10.18;;;;;;;2.77;86.51;102363.72;5063588;28;20513;-80
2021/04/24 02:11:04;;;;;;;18.50;9.27;;;;;;;2.78;86.50;102367.22;5044564;28;20040;-82
2021/04/24 02:13:33;;;;;;;20.73;9.57;;;;;;;2.85;86.29;102368.63;5039720;28;20116;-81
2021/04/24 02:15:59;;;;;;;25.63;11.32;;;;;;;2.76;85.95;102369.94;5044341;28;20048;-82
2021/04/24 02:18:25;;;;;;;17.55;8.73;;;;;;;2.72;86.64;102377.19;5066065;28;20385;-79
2021/04/24 02:20:51;;;;;;;15.20;8.20;;;;;;;2.71;86.21;102364.03;5046805;28;20500;-79
2021/04/24 02:23:16;;;;;;;16.75;8.93;;;;;;;2.75;86.01;102370.88;5043714;28;20060;-81
2021/04/24 02:25:44;;;;;;;17.90;8.90;;;;;;;2.66;85.83;102369.53;5064568;28;20140;-81
2021/04/24 02:28:10;;;;;;;20.85;8.93;;;;;;;2.59;86.30;102372.56;5060803;28;20363;-82
2021/04/24 02:30:35;;;;;;;17.15;8.85;;;;;;;2.54;86.57;102369.28;5049374;28;20039;-78
2021/04/24 02:33:03;;;;;;;18.90;8.30;;;;;;;2.41;86.52;102369.00;5064792;28;20048;-78
2021/04/24 02:35:39;;;;;;;20.42;8.13;;;;;;;2.35;87.12;102370.16;5067017;28;20060;-83
2021/04/24 02:38:05;;;;;;;17.35;8.20;;;;;;;2.33;87.15;102369.38;5064925;28;20037;-80
2021/04/24 02:40:30;;;;;;;14.48;7.30;;;;;;;2.24;87.99;102370.69;5041566;28;20423;-80
2021/04/24 02:42:56;;;;;;;18.98;8.75;;;;;;;2.22;88.27;102371.69;5063671;28;20043;-81
2021/04/24 02:45:21;;;;;;;16.48;8.68;;;;;;;2.18;88.57;102368.28;5027138;28;20361;-77
2021/04/24 02:47:47;;;;;;;19.58;8.85;;;;;;;2.18;88.53;102372.72;5063477;28;20037;-82
2021/04/24 02:50:18;;;;;;;16.17;8.35;;;;;;;2.15;88.67;102372.88;5043503;28;20047;-78
2021/04/24 02:52:44;;;;;;;17.35;7.70;;;;;;;2.10;88.86;102373.09;5058808;28;20049;-77
2021/04/24 02:55:11;;;;;;;14.65;8.43;;;;;;;2.10;88.49;102372.22;5065946;28;20441;-82
2021/04/24 02:57:37;;;;;;;15.65;8.55;;;;;;;2.02;88.73;102375.25;5069577;28;20370;-77
2021/04/24 03:00:09;;;;;;;18.10;7.43;;;;;;;1.97;88.62;102375.44;5069762;28;20055;-82
2021/04/24 03:02:35;;;;;;;16.20;7.90;;;;;;;1.96;88.55;102379.03;5064772;28;20040;-80
2021/04/24 03:05:06;;;;;;;17.55;8.95;;;;;;;1.94;88.76;102378.22;5065956;28;20123;-82
2021/04/24 03:07:31;;;;;;;14.60;7.43;;;;;;;1.84;88.99;102379.56;5067691;28;20044;-82
2021/04/24 03:09:57;;;;;;;17.98;8.80;;;;;;;1.85;89.50;102381.31;5032697;28;20101;-82
2021/04/24 03:12:22;;;;;;;14.40;7.90;;;;;;;1.80;89.63;102384.13;5048169;28;20089;-84
2021/04/24 03:14:48;;;;;;;19.23;8.68;;;;;;;1.85;89.54;102385.75;5048670;28;20139;-78
2021/04/24 03:17:13;;;;;;;17.83;8.15;;;;;;;1.78;89.62;102379.84;5048236;28;20248;-84
2021/04/24 03:19:38;;;;;;;19.73;8.13;;;;;;;1.73;89.07;102377.41;5049656;28;20116;-77
2021/04/24 03:22:04;;;;;;;14.95;7.60;;;;;;;1.67;89.17;102372.41;5050928;28;20556;-76
2021/04/24 03:24:29;;;;;;;21.85;8.45;;;;;;;1.64;89.80;102369.00;5046320;28;20491;-80
2021/04/24 03:26:54;;;;;;;18.55;7.88;;;;;;;1.65;89.58;102368.09;5048194;28;20119;-75
2021/04/24 03:29:20;;;;;;;13.80;7.68;;;;;;;1.68;89.78;102370.59;5047859;28;20051;-83
2021/04/24 03:31:46;;;;;;;14.65;7.97;;;;;;;1.63;89.56;102369.94;5048220;28;20070;-79
2021/04/24 03:34:11;;;;;;;15.27;7.82;;;;;;;1.56;89.97;102367.56;5061047;28;20040;-80
2021/04/24 03:36:36;;;;;;;15.50;8.07;;;;;;;1.57;90.28;102366.63;5048432;28;20047;-79
2021/04/24 03:39:03;;;;;;;19.33;8.60;;;;;;;1.55;90.60;102368.50;5031315;28;20448;-79
2021/04/24 03:41:28;;;;;;;19.88;8.13;;;;;;;1.50;90.51;102367.00;5067761;28;20048;-81
2021/04/24 03:43:54;;;;;;;16.05;8.40;;;;;;;1.48;90.43;102372.34;5053318;28;20044;-84
2021/04/24 03:46:19;;;;;;;17.02;8.82;;;;;;;1.49;90.26;102365.25;5052299;28;20543;-81
2021/04/24 03:48:45;;;;;;;16.58;8.48;;;;;;;1.48;90.44;102376.78;5069971;28;20564;-82
2021/04/24 03:51:10;;;;;;;17.25;8.23;;;;;;;1.49;89.88;102371.41;5048018;28;20048;-79
2021/04/24 03:53:35;;;;;;;17.75;8.38;;;;;;;1.44;90.29;102370.78;5047703;28;20098;-79
2021/04/24 03:56:01;;;;;;;16.20;8.65;;;;;;;1.39;89.68;102366.59;5066362;28;20041;-83
2021/04/24 03:58:26;;;;;;;19.25;8.82;;;;;;;1.39;90.09;102371.91;5068971;28;20148;-80
2021/04/24 04:00:52;;;;;;;19.40;9.23;;;;;;;1.39;89.94;102369.25;5070561;28;20435;-81
2021/04/24 04:03:17;;;;;;;19.42;8.82;;;;;;;1.30;90.05;102367.84;5067311;28;20112;-79
2021/04/24 04:05:45;;;;;;;14.57;8.02;;;;;;;1.37;90.01;102369.28;5043685;28;20033;-78
2021/04/24 04:08:13;;;;;;;16.08;8.15;;;;;;;1.39;89.58;102372.75;5062944;28;20044;-81
2021/04/24 04:10:40;;;;;;;16.63;8.40;;;;;;;1.39;89.74;102382.47;5051461;28;20082;-80
2021/04/24 04:13:07;;;;;;;17.58;8.82;;;;;;;1.33;89.51;102379.16;5067596;28;20051;-80
2021/04/24 04:15:32;;;;;;;17.35;7.70;;;;;;;1.27;89.71;102383.88;5070404;28;20151;-79
2021/04/24 04:18:08;;;;;;;16.90;9.13;;;;;;;1.34;89.68;102387.94;5032982;28;20120;-76
2021/04/24 04:20:36;;;;;;;18.58;9.75;;;;;;;1.28;89.57;102386.44;5068334;28;20043;-82
2021/04/24 04:23:01;;;;;;;16.73;8.73;;;;;;;1.28;89.84;102390.84;5029071;28;20048;-79
2021/04/24 04:25:26;;;;;;;19.85;8.65;;;;;;;1.24;89.96;102384.00;5034244;28;20032;-79
2021/04/24 04:27:53;;;;;;;16.25;8.05;;;;;;;1.23;89.85;102388.41;5050268;28;20428;-82
2021/04/24 04:30:20;;;;;;;16.70;7.68;;;;;;;1.19;89.72;102391.25;5062314;28;20049;-78
2021/04/24 04:32:45;;;;;;;15.40;7.82;;;;;;;1.21;90.12;102390.28;5066435;28;20033;-81
2021/04/24 04:35:12;;;;;;;18.63;9.32;;;;;;;1.18;89.66;102389.50;5047805;28;20447;-82
2021/04/24 04:37:38;;;;;;;18.35;8.82;;;;;;;1.17;89.98;102393.09;5069215;28;20051;-83
2021/04/24 04:40:08;;;;;;;17.88;9.55;;;;;;;1.15;90.46;102394.94;5046095;28;20061;-81
2021/04/24 04:42:33;;;;;;;20.05;9.55;;;;;;;1.15;90.58;102394.94;5029357;28;20374;-83
2021/04/24 04:44:59;;;;;;;16.35;9.13;;;;;;;1.16;91.18;102399.31;5049383;28;20043;-79
2021/04/24 04:47:24;;;;;;;20.95;9.13;;;;;;;1.18;91.07;102408.03;5067371;28;20440;-78
2021/04/24 04:49:50;;;;;;;18.30;9.13;;;;;;;1.19;91.09;102407.13;5066732;28;20028;-81
2021/04/24 04:52:15;;;;;;;17.55;8.88;;;;;;;1.15;91.04;102395.78;5046660;28;20131;-82
2021/04/24 04:54:41;;;;;;;24.10;10.85;;;;;;;1.18;91.08;102397.44;5066357;28;20032;-83
2021/04/24 04:57:07;;;;;;;20.58;9.68;;;;;;;1.20;92.06;102403.53;5060434;28;20037;-78
2021/04/24 04:59:32;;;;;;;18.05;10.57;;;;;;;1.25;92.04;102398.94;5047704;28;20107;-79
2021/04/24 05:01:58;;;;;;;19.33;9.52;;;;;;;1.21;91.61;102389.38;5048358;28;20106;-82
2021/04/24 05:04:24;;;;;;;21.73;9.32;;;;;;;1.30;91.95;102395.16;5047594;28;20036;-77
2021/04/24 05:06:50;;;;;;;22.15;10.57;;;;;;;1.33;91.79;102386.25;5069060;28;20048;-78
2021/04/24 05:09:18;;;;;;;17.15;9.27;;;;;;;1.41;91.96;102388.53;5065145;28;20094;-78
2021/04/24 05:11:44;;;;;;;22.10;10.23;;;;;;;1.46;91.23;102387.41;5063642;28;20052;-81
2021/04/24 05:14:10;;;;;;;20.50;9.85;;;;;;;1.47;91.49;102389.16;5061618;28;20128;-80
2021/04/24 05:16:35;;;;;;;23.02;10.73;;;;;;;1.53;91.30;102390.69;5030321;28;20128;-79
2021/04/24 05:19:00;;;;;;;22.20;10.18;;;;;;;1.53;91.89;102391.53;5044356;28;20488;-81
2021/04/24 05:21:27;;;;;;;21.98;11.07;;;;;;;1.63;91.40;102380.53;5064341;28;20090;-82
2021/04/24 05:23:52;;;;;;;24.92;10.65;;;;;;;1.63;91.94;102385.81;5047897;28;20292;-81
2021/04/24 05:26:18;;;;;;;20.17;10.32;;;;;;;1.72;91.97;102398.66;5045110;28;20167;-81
2021/04/24 05:28:44;;;;;;;21.20;10.93;;;;;;;1.74;92.46;102395.00;5062886;28;20063;-77
2021/04/24 05:31:09;;;;;;;19.55;10.65;;;;;;;1.80;91.99;102391.22;5066938;28;20048;-75
2021/04/24 05:33:34;;;;;;;20.25;9.70;;;;;;;1.88;91.79;102397.03;5065690;28;20045;-82
2021/04/24 05:36:03;;;;;;;23.88;11.02;;;;;;;2.01;91.60;102394.69;5048029;28;20072;-75
2021/04/24 05:38:28;;;;;;;21.35;10.88;;;;;;;2.02;92.12;102388.47;5063083;28;20488;-80
2021/04/24 05:40:54;;;;;;;21.70;11.15;;;;;;;2.08;91.20;102384.69;5063409;28;20246;-78
2021/04/24 05:43:20;;;;;;;21.02;10.23;;;;;;;2.15;91.29;102394.91;5044602;28;20573;-77
2021/04/24 05:45:45;;;;;;;21.35;10.55;;;;;;;2.28;91.39;102389.06;5043200;28;20048;-84
2021/04/24 05:48:10;;;;;;;22.33;11.48;;;;;;;2.31;91.50;102397.72;5044037;28;20564;-82
2021/04/24 05:50:36;;;;;;;24.88;11.80;;;;;;;2.36;91.42;102393.09;5046367;28;20072;-80
2021/04/24 05:53:05;;;;;;;21.27;11.35;;;;;;;2.47;91.09;102395.19;5034950;28;20048;-80
2021/04/24 05:55:31;;;;;;;25.95;11.73;;;;;;;2.53;91.49;102386.94;5058538;28;20082;-76
2021/04/24 05:57:57;;;;;;;23.00;11.90;;;;;;;2.60;91.38;102390.19;5043749;28;20469;-81
2021/04/24 06:00:22;;;;;;;26.45;12.65;;;;;;;2.64;92.25;102391.75;5028993;28;20044;-84
2021/04/24 06:02:49;;;;;;;21.90;12.00;;;;;;;2.75;92.28;102397.41;5064324;28;20328;-78
2021/04/24 06:05:15;;;;;;;26.27;12.77;;;;;;;2.89;91.68;102400.22;5046280;28;20047;-78
2021/04/24 06:07:41;;;;;;;24.88;11.73;;;;;;;3.00;91.88;102398.84;5050329;28;20496;-78
2021/04/24 06:10:09;;;;;;;24.23;12.07;;;;;;;3.08;92.55;102386.94;5065629;28;20039;-80
2021/04/24 06:12:35;;;;;;;26.20;12.77;;;;;;;3.23;91.08;102387.94;5047621;28;20040;-76
2021/04/24 06:15:00;;;;;;;24.05;11.57;;;;;;;3.37;90.32;102382.78;5050409;28;20519;-81
2021/04/24 06:17:26;;;;;;;23.27;11.48;;;;;;;3.51;90.38;102390.06;5066381;28;20315;-79
2021/04/24 06:19:51;;;;;;;21.35;11.23;;;;;;;3.66;91.32;102388.38;5066901;28;20039;-79
2021/04/24 06:22:17;;;;;;;19.77;11.55;;;;;;;3.78;92.62;102379.75;5060413;28;20051;-80
2021/04/24 06:24:43;;;;;;;22.70;12.18;;;;;;;3.95;91.62;102383.34;5047482;28;20044;-80
2021/04/24 06:27:08;;;;;;;20.55;12.70;;;;;;;4.07;90.95;102387.97;5041911;28;20055;-82
2021/04/24 06:29:34;;;;;;;23.42;13.35;;;;;;;4.23;90.74;102395.94;5049666;28;20384;-79
2021/04/24 06:32:00;;;;;;;22.27;12.02;;;;;;;4.34;90.17;102392.72;5066328;28;20041;-77
2021/04/24 06:34:25;;;;;;;24.58;11.77;;;;;;;4.43;89.73;102390.41;5066104;28;20086;-79
2021/04/24 06:36:51;;;;;;;22.70;12.60;;;;;;;4.57;89.63;102389.63;5067213;28;20040;-82
2021/04/24 06:39:16;;;;;;;26.00;12.23;;;;;;;4.68;89.56;102400.50;5066758;28;20485;-77
2021/04/24 06:41:42;;;;;;;22.23;11.35;;;;;;;4.82;87.93;102388.25;5016332;28;20132;-78
2021/04/24 06:44:07;;;;;;;20.52;11.15;;;;;;;4.95;87.33;102386.59;5065290;28;20044;-84
2021/04/24 06:46:32;;;;;;;20.13;10.43;;;;;;;5.10;87.38;102391.03;5015058;28;20385;-79
2021/04/24 06:48:58;;;;;;;21.92;10.30;;;;;;;5.24;87.42;102395.53;5048983;28;20049;-77
2021/04/24 06:51:24;;;;;;;21.85;11.38;;;;;;;5.36;86.57;102388.63;5049617;28;20033;-81
2021/04/24 06:53:53;;;;;;;44.45;27.38;;;;;;;5.50;86.31;102387.81;5047438;28;20465;-78
2021/04/24 06:56:20;;;;;;;20.65;10.00;;;;;;;5.59;85.36;102384.59;5048855;28;20047;-80
2021/04/24 06:58:45;;;;;;;19.48;10.38;;;;;;;5.75;85.30;102382.69;5061304;28;20045;-82
2021/04/24 07:01:10;;;;;;;16.15;10.02;;;;;;;5.87;86.39;102381.09;5033568;28;20042;-79
2021/04/24 07:03:37;;;;;;;18.73;10.32;;;;;;;5.96;85.12;102385.88;5033547;28;20075;-82
2021/04/24 07:06:03;;;;;;;21.95;10.70;;;;;;;6.25;85.78;102378.72;5067996;28;20476;-75
2021/04/24 07:08:29;;;;;;;21.88;12.63;;;;;;;6.50;82.55;102380.66;5064765;28;20078;-79
2021/04/24 07:10:54;;;;;;;18.95;9.65;;;;;;;6.65;83.03;102373.47;5050138;28;20045;-81
2021/04/24 07:13:20;;;;;;;15.70;8.52;;;;;;;6.68;82.33;102383.09;5069262;28;20044;-85
2021/04/24 07:15:45;;;;;;;19.73;9.48;;;;;;;6.80;82.23;102371.63;5069066;28;20388;-84
2021/04/24 07:18:10;;;;;;;17.45;9.45;;;;;;;6.85;81.35;102373.97;5064329;28;20039;-82
2021/04/24 07:20:36;;;;;;;16.52;9.30;;;;;;;6.93;80.22;102366.31;5066275;28;20067;-85
2021/04/24 07:23:01;;;;;;;19.42;8.80;;;;;;;7.00;80.29;102389.81;5051141;28;20040;-76
2021/04/24 07:25:27;;;;;;;22.33;9.07;;;;;;;7.06;79.19;102379.72;5047717;28;20041;-82
2021/04/24 07:27:52;;;;;;;18.45;8.55;;;;;;;7.14;78.92;102374.72;5068197;28;20040;-76
2021/04/24 07:30:18;;;;;;;13.40;7.13;;;;;;;7.22;77.61;102377.69;5050456;28;20045;-80
2021/04/24 07:32:44;;;;;;;13.77;7.50;;;;;;;7.36;76.12;102374.09;5069902;28;20049;-81
2021/04/24 07:35:11;;;;;;;11.73;7.43;;;;;;;7.49;75.05;102372.31;5048123;28;20028;-78
2021/04/24 07:37:36;;;;;;;12.55;6.55;;;;;;;7.52;75.14;102368.56;5066510;28;20037;-78
2021/04/24 07:40:03;;;;;;;13.40;6.28;;;;;;;7.55;73.70;102373.69;5046187;28;20033;-80
2021/04/24 07:42:28;;;;;;;10.77;6.03;;;;;;;7.61;73.37;102374.13;5067985;28;20037;-80
2021/04/24 07:44:54;;;;;;;15.65;6.13;;;;;;;7.68;73.38;102369.19;5037140;28;20397;-84
2021/04/24 07:47:19;;;;;;;9.80;5.32;;;;;;;7.75;73.19;102369.63;5071347;28;20036;-78
2021/04/24 07:49:45;;;;;;;15.65;6.13;;;;;;;7.78;72.82;102378.28;5053448;28;21898;-80
2021/04/24 07:52:11;;;;;;;11.25;5.53;;;;;;;7.80;71.63;102370.19;5032745;28;20044;-84
2021/04/24 07:54:43;;;;;;;11.38;5.80;;;;;;;7.79;71.47;102365.78;5070198;28;20047;-85
2021/04/24 07:57:13;;;;;;;12.95;6.15;;;;;;;7.98;71.64;102368.88;5068739;28;20519;-81
2021/04/24 07:59:39;;;;;;;10.95;5.68;;;;;;;7.95;69.21;102368.25;5049347;28;20381;-79
2021/04/24 08:02:05;;;;;;;8.32;4.60;;;;;;;7.97;69.56;102364.50;5035748;28;20055;-78
2021/04/24 08:04:32;;;;;;;11.02;4.90;;;;;;;7.99;69.13;102367.91;5065556;28;20036;-84
2021/04/24 08:06:58;;;;;;;8.52;4.65;;;;;;;8.06;67.33;102368.34;5049461;28;20251;-80
2021/04/24 08:09:23;;;;;;;16.35;4.60;;;;;;;8.11;67.45;102366.16;5048412;28;20072;-83
2021/04/24 08:11:49;;;;;;;15.05;4.70;;;;;;;8.32;67.00;102367.31;5065017;28;20105;-79
2021/04/24 08:14:14;;;;;;;8.43;3.97;;;;;;;8.35;66.72;102360.88;5073083;28;20046;-79
2021/04/24 08:16:40;;;;;;;32.80;6.70;;;;;;;8.46;66.97;102358.31;5052364;28;20101;-80
2021/04/24 08:19:05;;;;;;;15.18;5.55;;;;;;;8.54;66.74;102365.75;5070294;28;20127;-83
2021/04/24 08:21:31;;;;;;;10.65;4.50;;;;;;;8.57;66.35;102363.75;5067337;28;20041;-80
2021/04/24 08:24:00;;;;;;;10.00;4.93;;;;;;;8.65;67.22;102362.28;5068104;28;20044;-79
2021/04/24 08:26:28;;;;;;;13.13;5.38;;;;;;;8.85;67.36;102360.81;5067835;28;20111;-81
2021/04/24 08:28:53;;;;;;;7.97;4.57;;;;;;;8.81;64.68;102361.06;5048707;28;20055;-82
2021/04/24 08:31:19;;;;;;;9.85;5.10;;;;;;;8.76;64.96;102363.22;5031758;28;20060;-82
2021/04/24 08:33:44;;;;;;;13.18;5.90;;;;;;;8.85;66.55;102355.47;5063683;28;20041;-82
2021/04/24 08:36:10;;;;;;;14.98;5.70;;;;;;;9.08;67.15;102357.25;5064660;28;20044;-81
2021/04/24 08:38:35;;;;;;;18.50;5.90;;;;;;;9.25;66.52;102354.16;5051834;28;20040;-77
2021/04/24 08:41:05;;;;;;;9.90;4.78;;;;;;;9.15;65.04;102357.63;5035217;28;20075;-84
2021/04/24 08:43:31;;;;;;;10.07;4.75;;;;;;;9.23;66.02;102350.72;5049778;28;20086;-83
2021/04/24 08:46:00;;;;;;;12.27;5.05;;;;;;;9.24;64.65;102356.97;5066048;28;20507;-79
2021/04/24 08:48:26;;;;;;;16.27;5.82;;;;;;;9.36;65.96;102353.31;5046772;28;20048;-78
2021/04/24 08:50:52;;;;;;;7.40;4.50;;;;;;;9.49;64.78;102345.19;5064443;28;20047;-81
2021/04/24 08:53:18;;;;;;;10.32;5.25;;;;;;;9.43;64.47;102346.50;5047694;28;20052;-80
2021/04/24 08:55:44;;;;;;;8.15;4.32;;;;;;;9.56;64.74;102345.56;5063249;28;20048;-86
2021/04/24 08:58:09;;;;;;;9.32;5.47;;;;;;;9.52;64.08;102339.56;5045822;28;20127;-81
2021/04/24 09:00:37;;;;;;;12.18;5.72;;;;;;;9.54;64.94;102342.16;5065197;28;20041;-82
2021/04/24 09:03:07;;;;;;;7.67;4.50;;;;;;;9.55;63.54;102336.69;5047650;28;20044;-81
2021/04/24 09:05:33;;;;;;;12.60;5.47;;;;;;;9.46;63.49;102343.59;5058941;28;20659;-82
2021/04/24 09:08:05;;;;;;;12.80;4.95;;;;;;;9.44;62.93;102347.38;5067093;28;20040;-80
2021/04/24 09:10:48;;;;;;;8.63;4.15;;;;;;;9.36;63.06;102344.44;5062297;28;20055;-84
2021/04/24 09:13:19;;;;;;;10.70;5.10;;;;;;;9.34;63.51;102347.22;5046058;28;20086;-83
2021/04/24 09:15:46;;;;;;;7.55;4.28;;;;;;;9.39;63.26;102349.56;5063836;28;20550;-82
2021/04/24 09:18:15;;;;;;;10.60;4.70;;;;;;;9.47;62.95;102352.50;5067542;28;20068;-82
2021/04/24 09:20:53;;;;;;;11.60;4.68;;;;;;;9.51;62.00;102347.75;5049281;28;20140;-83
2021/04/24 09:23:41;;;;;;;9.63;4.20;;;;;;;9.66;62.57;102352.75;5063024;28;20093;-75
2021/04/24 09:26:10;;;;;;;6.47;3.85;;;;;;;9.74;60.30;102341.44;5059939;28;20044;-81
2021/04/24 09:28:43;;;;;;;7.78;3.67;;;;;;;9.74;59.50;102348.63;5063819;28;20040;-78
2021/04/24 09:31:09;;;;;;;7.32;3.90;;;;;;;9.80;59.25;102348.16;5063040;28;20052;-82
2021/04/24 09:33:35;;;;;;;6.75;4.10;;;;;;;9.90;60.64;102333.91;5046731;28;20044;-80
2021/04/24 09:36:01;;;;;;;8.27;4.00;;;;;;;9.92;58.28;102336.44;5062674;28;20032;-84
2021/04/24 09:38:32;;;;;;;9.10;3.88;;;;;;;10.04;59.54;102340.84;5045205;28;20132;-84
2021/04/24 09:41:05;;;;;;;8.20;4.07;;;;;;;10.13;58.14;102340.09;5064713;28;20489;-80
2021/04/24 09:44:13;;;;;;;6.10;3.25;;;;;;;10.14;57.57;102341.78;5063899;28;20075;-83
2021/04/24 09:46:48;;;;;;;6.43;3.25;;;;;;;10.22;56.67;102326.91;5045367;28;20052;-85
2021/04/24 09:49:21;;;;;;;5.63;4.13;;;;;;;10.31;55.42;102326.19;5068304;28;20105;-80
2021/04/24 09:51:56;;;;;;;7.25;4.43;;;;;;;10.37;55.63;102342.63;5063661;28;20401;-81
2021/04/24 09:54:24;;;;;;;6.82;3.90;;;;;;;10.29;56.38;102330.81;5066605;28;20147;-81
2021/04/24 09:56:59;;;;;;;12.88;4.72;;;;;;;10.49;56.00;102329.19;5047528;28;20127;-82
2021/04/24 09:59:25;;;;;;;9.57;5.10;;;;;;;10.54;57.01;102333.22;5066782;28;20492;-77
2021/04/24 10:02:05;;;;;;;16.02;5.90;;;;;;;10.70;58.82;102327.41;5048669;28;20426;-81
2021/04/24 10:04:30;;;;;;;11.73;4.95;;;;;;;10.89;57.83;102324.03;5067898;28;20056;-80
2021/04/24 10:06:56;;;;;;;10.30;5.22;;;;;;;10.76;56.99;102320.66;5054606;28;20040;-83
2021/04/24 10:09:25;;;;;;;12.15;5.50;;;;;;;10.74;57.79;102309.22;5053399;28;20500;-81
2021/04/24 10:12:02;;;;;;;9.87;5.53;;;;;;;10.71;58.40;102318.38;5073561;28;20044;-80
2021/04/24 10:14:45;;;;;;;12.98;5.70;;;;;;;10.80;58.69;102312.25;5072225;28;20119;-79
2021/04/24 10:17:12;;;;;;;12.57;6.63;;;;;;;10.82;59.34;102321.03;5071823;28;20550;-81
2021/04/24 10:19:39;;;;;;;10.68;6.25;;;;;;;10.87;59.55;102319.78;5041641;28;20064;-79
2021/04/24 10:22:07;;;;;;;10.10;6.13;;;;;;;11.04;58.06;102320.06;5073417;28;20066;-85
2021/04/24 10:24:34;;;;;;;12.43;6.10;;;;;;;11.05;56.91;102311.03;5041826;28;20045;-79
2021/04/24 10:27:00;;;;;;;10.48;5.72;;;;;;;10.91;58.21;102319.41;5071225;28;20066;-81
2021/04/24 10:29:26;;;;;;;12.65;6.55;;;;;;;11.11;57.77;102303.44;5071728;28;21166;-82
2021/04/24 10:31:52;;;;;;;9.75;5.68;;;;;;;11.18;56.94;102309.97;5074153;28;20044;-83
2021/04/24 10:34:18;;;;;;;11.00;5.63;;;;;;;11.06;57.49;102318.09;5070758;28;20106;-84
2021/04/24 10:36:44;;;;;;;10.75;4.88;;;;;;;11.21;57.78;102309.72;5053217;28;20508;-80
2021/04/24 10:39:28;;;;;;;9.18;4.85;;;;;;;11.38;56.66;102309.13;5052552;28;20424;-82
2021/04/24 10:42:21;;;;;;;11.45;5.15;;;;;;;11.41;57.82;102303.47;5056727;28;20064;-79
2021/04/24 10:44:47;;;;;;;17.85;6.30;;;;;;;11.41;56.93;102316.06;5007929;28;20048;-85
2021/04/24 10:47:12;;;;;;;8.95;5.30;;;;;;;11.55;55.38;102306.81;5067179;28;20499;-82
2021/04/24 10:49:53;;;;;;;10.43;5.30;;;;;;;11.53;55.45;102288.94;5054184;28;20518;-84
2021/04/24 10:52:22;;;;;;;11.15;5.50;;;;;;;11.54;55.97;102300.59;5050902;28;20097;-79
2021/04/24 10:55:12;;;;;;;10.55;5.70;;;;;;;11.63;56.86;102285.47;5073186;28;20071;-80
2021/04/24 10:57:38;;;;;;;12.93;5.85;;;;;;;11.61;53.72;102282.91;5070926;28;20032;-82
2021/04/24 11:00:07;;;;;;;20.00;6.22;;;;;;;11.82;55.34;102296.28;5071164;28;20154;-80
2021/04/24 11:02:43;;;;;;;11.75;5.28;;;;;;;11.82;54.03;102288.22;5053214;28;20053;-82
2021/04/24 11:06:01;;;;;;;10.65;4.95;;;;;;;11.88;51.88;102282.38;5073733;28;20075;-87
2021/04/24 11:08:26;;;;;;;13.95;5.32;;;;;;;11.93;53.48;102266.63;5025113;28;20076;-82
2021/04/24 11:11:10;;;;;;;11.25;5.07;;;;;;;12.04;51.27;102270.22;5053179;28;20496;-82
2021/04/24 11:13:44;;;;;;;13.95;5.18;;;;;;;12.35;53.21;102271.84;5070940;28;20048;-83
2021/04/24 11:16:13;;;;;;;12.02;4.80;;;;;;;12.67;53.19;102261.78;5055322;28;20048;-84
2021/04/24 11:18:42;;;;;;;30.92;6.93;;;;;;;12.84;53.35;102270.00;5056294;28;20063;-78
2021/04/24 11:21:08;;;;;;;9.50;5.05;;;;;;;12.59;50.61;102262.50;5074029;28;20477;-83
2021/04/24 11:23:43;;;;;;;28.20;6.90;;;;;;;12.77;52.44;102260.78;5074212;28;20131;-85
2021/04/24 11:26:16;;;;;;;172.23;16.25;;;;;;;12.73;51.48;102259.38;5055681;28;20123;-80